Time;durP1;ratioP1;P1;durP2;ratioP2;P2;SDS_P1;SDS_P2;PMS_P1;PMS_P2;Temp;Humidity;BMP_temperature;BMP_pressure;BME280_temperature;BME280_humidity;BME280_pressure;Samples;Min_cycle;Max_cycle;Signal;HPM_P1;HPM_P2
2024/03/16 00:00:14;;;;;;;19.35;3.63;;;12.20;99.90;;;;;;5074140;28;20031;-61
2024/03/16 00:02:40;;;;;;;22.73;2.75;;;12.20;99.90;;;;;;5074086;28;20017;-53
2024/03/16 00:05:06;;;;;;;20.17;3.28;;;12.20;99.90;;;;;;5074120;28;20396;-54
2024/03/16 00:07:32;;;;;;;13.98;3.22;;;12.20;99.90;;;;;;5073985;28;20020;-56
2024/03/16 00:09:57;;;;;;;18.92;3.13;;;12.20;99.90;;;;;;5074186;28;20404;-51
2024/03/16 00:12:23;;;;;;;9.00;2.40;;;12.20;99.90;;;;;;5073931;28;20032;-49
2024/03/16 00:14:49;;;;;;;18.88;2.85;;;12.10;99.90;;;;;;5073821;28;20082;-55
2024/03/16 00:17:17;;;;;;;18.10;2.55;;;12.20;99.90;;;;;;5074211;28;20535;-57
2024/03/16 00:19:45;;;;;;;17.80;2.97;;;12.10;99.90;;;;;;5073826;28;20534;-54
2024/03/16 00:22:11;;;;;;;9.77;2.15;;;12.10;99.90;;;;;;5071708;28;20051;-55
2024/03/16 00:24:37;;;;;;;21.13;4.03;;;12.00;99.90;;;;;;5073143;28;20047;-55
2024/03/16 00:27:02;;;;;;;18.60;3.78;;;11.90;99.90;;;;;;5073704;28;20473;-56
2024/03/16 00:29:28;;;;;;;19.08;3.63;;;11.90;99.90;;;;;;5073661;28;20033;-57
2024/03/16 00:31:54;;;;;;;16.98;3.50;;;11.80;99.90;;;;;;5073665;28;20027;-52
2024/03/16 00:34:20;;;;;;;31.10;4.45;;;11.80;99.90;;;;;;5073743;28;20473;-75
2024/03/16 00:36:45;;;;;;;17.63;3.13;;;11.70;99.90;;;;;;5073504;28;20070;-52
2024/03/16 00:39:23;;;;;;;18.50;3.85;;;11.70;99.90;;;;;;5073441;28;20024;-53
2024/03/16 00:41:49;;;;;;;17.45;3.42;;;11.60;99.90;;;;;;5073228;28;20033;-52
2024/03/16 00:44:15;;;;;;;27.85;4.40;;;11.60;99.90;;;;;;5072093;28;20108;-52
2024/03/16 00:46:40;;;;;;;23.10;3.92;;;11.50;99.90;;;;;;5073344;28;20055;-64
2024/03/16 00:49:06;;;;;;;22.08;4.93;;;11.50;99.90;;;;;;5073220;28;20021;-55
2024/03/16 00:51:33;;;;;;;24.60;5.47;;;11.50;99.90;;;;;;5073238;28;20028;-57
2024/03/16 00:53:58;;;;;;;22.52;4.43;;;11.50;99.90;;;;;;5073111;28;20562;-53
2024/03/16 00:56:24;;;;;;;31.83;6.18;;;11.50;99.90;;;;;;5073215;28;20055;-58
2024/03/16 00:58:50;;;;;;;22.98;4.88;;;11.50;99.90;;;;;;5072943;28;20516;-40
2024/03/16 01:01:18;;;;;;;35.42;6.47;;;11.40;99.90;;;;;;5073348;28;20025;-40
2024/03/16 01:03:44;;;;;;;32.97;6.07;;;11.40;99.90;;;;;;5073044;28;20499;-41
2024/03/16 01:06:09;;;;;;;36.78;5.63;;;11.40;99.90;;;;;;5072911;28;20100;-41
2024/03/16 01:08:35;;;;;;;21.25;6.28;;;11.40;99.90;;;;;;5072848;28;20089;-43
2024/03/16 01:11:00;;;;;;;29.55;5.28;;;11.30;99.90;;;;;;5072775;28;20059;-41
2024/03/16 01:13:27;;;;;;;23.25;5.13;;;11.20;99.90;;;;;;5072755;28;20418;-42
2024/03/16 01:15:52;;;;;;;29.05;5.68;;;11.10;99.90;;;;;;5072498;28;20016;-40
2024/03/16 01:18:18;;;;;;;22.05;4.78;;;11.00;99.90;;;;;;5072742;28;20024;-41
2024/03/16 01:20:44;;;;;;;24.70;4.22;;;10.90;99.90;;;;;;5072702;28;20473;-40
2024/03/16 01:23:12;;;;;;;25.65;3.58;;;10.80;99.90;;;;;;5072620;28;20032;-42
2024/03/16 01:25:38;;;;;;;16.85;3.42;;;10.80;99.90;;;;;;5072514;28;20039;-41
2024/03/16 01:28:04;;;;;;;22.92;3.30;;;10.70;99.90;;;;;;5072638;28;20496;-42
2024/03/16 01:30:30;;;;;;;11.95;2.53;;;10.50;99.90;;;;;;5072524;28;20392;-63
2024/03/16 01:32:56;;;;;;;15.07;3.08;;;10.50;99.90;;;;;;5072466;28;20564;-44
2024/03/16 01:35:22;;;;;;;11.75;2.40;;;10.40;99.90;;;;;;5072160;28;20362;-48
2024/03/16 01:37:47;;;;;;;16.88;1.70;;;10.40;99.90;;;;;;5072487;28;20485;-51
2024/03/16 01:40:13;;;;;;;15.73;2.42;;;10.30;99.90;;;;;;5072420;28;20032;-41
2024/03/16 01:42:39;;;;;;;11.18;1.83;;;10.20;99.90;;;;;;5072378;28;20023;-42
2024/03/16 01:45:12;;;;;;;6.82;1.98;;;10.20;99.90;;;;;;5072386;28;20027;-41
2024/03/16 01:47:38;;;;;;;11.35;1.65;;;10.20;99.90;;;;;;5072393;28;20098;-39
2024/03/16 01:50:04;;;;;;;7.70;1.60;;;10.20;99.90;;;;;;5072145;28;20048;-41
2024/03/16 01:52:30;;;;;;;4.53;1.05;;;10.20;99.90;;;;;;5072672;28;20421;-42
2024/03/16 01:54:55;;;;;;;5.30;1.42;;;10.20;99.90;;;;;;5072485;28;20048;-42
2024/03/16 01:57:21;;;;;;;10.27;1.50;;;10.10;99.90;;;;;;5072213;28;20025;-41
2024/03/16 01:59:48;;;;;;;11.45;2.30;;;10.10;99.90;;;;;;5072393;28;20489;-45
2024/03/16 02:02:34;;;;;;;4.60;1.05;;;10.00;99.90;;;;;;5072211;28;20031;-43
2024/03/16 02:05:01;;;;;;;3.08;0.98;;;9.90;99.90;;;;;;5070612;28;20028;-45
2024/03/16 02:07:26;;;;;;;7.15;1.05;;;9.80;99.90;;;;;;5071930;28;20047;-46
2024/03/16 02:09:52;;;;;;;0.55;0.40;;;9.70;99.90;;;;;;5072438;28;20447;-43
2024/03/16 02:12:18;;;;;;;1.90;1.00;;;9.50;99.90;;;;;;5070909;28;20067;-42
2024/03/16 02:14:44;;;;;;;4.72;1.10;;;9.40;99.90;;;;;;5072468;28;20029;-41
2024/03/16 02:17:11;;;;;;;2.90;1.20;;;9.40;99.90;;;;;;5072369;28;20481;-40
2024/03/16 02:19:37;;;;;;;4.88;1.52;;;9.30;99.90;;;;;;5071897;28;20020;-47
2024/03/16 02:22:06;;;;;;;3.80;0.95;;;9.20;99.90;;;;;;5072037;28;20501;-59
2024/03/16 02:24:32;;;;;;;2.20;1.00;;;9.30;99.90;;;;;;5071738;28;20389;-44
2024/03/16 02:26:59;;;;;;;3.42;1.17;;;9.30;99.90;;;;;;5070648;28;20034;-42
2024/03/16 02:29:27;;;;;;;9.90;1.42;;;9.30;99.90;;;;;;5071931;28;20020;-46
2024/03/16 02:31:53;;;;;;;6.88;1.60;;;9.20;99.90;;;;;;5071997;28;20029;-41
2024/03/16 02:34:19;;;;;;;9.10;2.40;;;9.30;99.90;;;;;;5072029;28;20058;-41
2024/03/16 02:36:44;;;;;;;5.00;1.27;;;9.20;99.90;;;;;;5071814;28;20025;-43
2024/03/16 02:39:11;;;;;;;8.05;1.85;;;9.30;99.90;;;;;;5071788;28;20381;-51
2024/03/16 02:41:37;;;;;;;7.32;1.65;;;9.40;99.90;;;;;;5071714;28;20028;-42
2024/03/16 02:44:03;;;;;;;10.02;1.80;;;9.30;99.90;;;;;;5072067;28;20025;-41
2024/03/16 02:46:29;;;;;;;8.13;1.70;;;9.30;99.90;;;;;;5073413;28;20017;-44
2024/03/16 02:48:54;;;;;;;11.52;2.72;;;9.30;99.90;;;;;;5075583;28;20362;-42
2024/03/16 02:51:21;;;;;;;12.82;2.38;;;9.30;99.90;;;;;;5074299;28;20028;-43
2024/03/16 02:53:46;;;;;;;5.47;1.95;;;9.20;99.90;;;;;;5075438;28;20147;-44
2024/03/16 02:56:15;;;;;;;10.55;3.45;;;9.20;99.90;;;;;;5075762;28;20040;-49
2024/03/16 02:58:40;;;;;;;4.00;1.70;;;9.20;99.90;;;;;;5075301;28;20021;-46
2024/03/16 03:01:06;;;;;;;15.43;1.83;;;9.10;99.90;;;;;;5075380;28;20050;-49
2024/03/16 03:03:32;;;;;;;5.57;1.40;;;9.10;99.90;;;;;;5075395;28;20025;-47
2024/03/16 03:05:57;;;;;;;5.82;1.77;;;9.00;99.90;;;;;;5075271;28;20033;-58
2024/03/16 03:08:23;;;;;;;14.05;1.25;;;8.90;99.90;;;;;;5075307;28;20025;-56
2024/03/16 03:10:50;;;;;;;3.70;0.90;;;8.90;99.90;;;;;;5075090;28;20040;-57
2024/03/16 03:13:15;;;;;;;7.82;1.50;;;8.90;99.90;;;;;;5074883;28;20422;-56
2024/03/16 03:15:41;;;;;;;2.72;0.73;;;8.90;99.90;;;;;;5075046;28;20055;-57
2024/03/16 03:18:07;;;;;;;6.30;1.10;;;8.90;99.90;;;;;;5075144;28;20024;-56
2024/03/16 03:20:35;;;;;;;9.73;1.40;;;8.90;99.90;;;;;;5075004;28;20024;-55
2024/03/16 03:23:02;;;;;;;5.45;0.95;;;8.90;99.90;;;;;;5075007;28;20469;-57
2024/03/16 03:25:27;;;;;;;3.05;1.10;;;8.80;99.90;;;;;;5073565;28;20021;-53
2024/03/16 03:27:53;;;;;;;1.70;0.95;;;8.80;99.90;;;;;;5074903;28;20384;-57
2024/03/16 03:30:19;;;;;;;6.38;1.15;;;8.90;99.90;;;;;;5074761;28;20396;-56
2024/03/16 03:32:44;;;;;;;7.15;0.75;;;8.90;99.90;;;;;;5074772;28;20078;-69
2024/03/16 03:35:10;;;;;;;5.43;0.98;;;8.90;99.90;;;;;;5074945;28;20483;-55
2024/03/16 03:37:36;;;;;;;3.13;0.65;;;8.90;99.90;;;;;;5074626;28;20021;-56
2024/03/16 03:40:01;;;;;;;10.85;1.08;;;8.80;99.90;;;;;;5067826;28;20366;-57
2024/03/16 03:42:29;;;;;;;3.60;1.10;;;8.70;99.90;;;;;;5054623;28;20389;-56
2024/03/16 03:48:02;;;;;;;4.30;1.58;;;8.80;99.90;;;;;;5057669;28;20071;-56
2024/03/16 03:50:29;;;;;;;7.13;1.10;;;8.80;99.90;;;;;;5074701;28;20662;-66
2024/03/16 03:53:01;;;;;;;3.83;0.50;;;8.80;99.90;;;;;;5073412;28;20027;-55
2024/03/16 03:55:27;;;;;;;3.42;0.70;;;8.80;99.90;;;;;;5074645;28;20483;-55
2024/03/16 03:57:52;;;;;;;3.95;0.73;;;8.80;99.90;;;;;;5072946;28;20024;-56
2024/03/16 04:00:18;;;;;;;6.63;1.25;;;8.80;99.90;;;;;;5074612;28;20434;-57
2024/03/16 04:02:44;;;;;;;5.82;0.88;;;8.80;99.90;;;;;;5072906;28;20013;-56
2024/03/16 04:05:11;;;;;;;1.83;0.80;;;8.80;99.90;;;;;;5073796;28;20474;-67
2024/03/16 04:07:36;;;;;;;6.43;0.70;;;8.80;99.90;;;;;;5074181;28;20020;-53
2024/03/16 04:10:04;;;;;;;3.20;1.58;;;8.80;99.90;;;;;;5073912;28;20024;-58
2024/03/16 04:12:30;;;;;;;3.22;0.77;;;8.80;99.90;;;;;;5074334;28;20032;-56
2024/03/16 04:14:56;;;;;;;4.80;1.13;;;8.70;99.90;;;;;;5074020;28;20378;-55
2024/03/16 04:17:22;;;;;;;7.25;0.88;;;8.70;99.90;;;;;;5073998;28;20017;-59
2024/03/16 04:19:47;;;;;;;9.68;1.02;;;8.70;99.90;;;;;;5073871;28;20047;-56
2024/03/16 04:22:14;;;;;;;5.93;1.58;;;8.70;99.90;;;;;;5073764;28;20025;-43
2024/03/16 04:24:39;;;;;;;8.00;1.85;;;8.70;99.90;;;;;;5073852;28;20028;-43
2024/03/16 04:27:05;;;;;;;7.00;1.13;;;8.70;99.90;;;;;;5073807;28;20410;-45
2024/03/16 04:29:31;;;;;;;2.22;1.23;;;8.70;99.90;;;;;;5073838;28;20031;-44
2024/03/16 04:31:57;;;;;;;3.17;1.15;;;8.60;99.90;;;;;;5073768;28;20464;-43
2024/03/16 04:34:26;;;;;;;4.93;1.52;;;8.60;99.90;;;;;;5073497;28;20048;-46
2024/03/16 04:36:52;;;;;;;9.32;1.15;;;8.50;99.90;;;;;;5073441;28;20066;-44
2024/03/16 04:39:22;;;;;;;2.63;1.00;;;8.50;99.90;;;;;;5073395;28;20489;-43
2024/03/16 04:41:49;;;;;;;2.08;1.10;;;8.50;99.90;;;;;;5073378;28;20036;-42
2024/03/16 04:44:15;;;;;;;8.40;2.05;;;8.50;99.90;;;;;;5073448;28;20489;-56
2024/03/16 04:46:41;;;;;;;4.53;0.93;;;8.50;99.90;;;;;;5072072;28;20024;-55
2024/03/16 04:49:07;;;;;;;12.10;1.30;;;8.50;99.90;;;;;;5073282;28;20043;-72
2024/03/16 04:51:33;;;;;;;4.80;1.45;;;8.50;99.90;;;;;;5073290;28;20473;-56
2024/03/16 04:54:01;;;;;;;10.13;1.30;;;8.50;99.90;;;;;;5073045;28;20535;-56
2024/03/16 04:56:28;;;;;;;10.60;1.40;;;8.50;99.90;;;;;;5073011;28;20571;-53
2024/03/16 04:58:54;;;;;;;9.05;1.33;;;8.50;99.90;;;;;;5073469;28;20099;-56
2024/03/16 05:01:20;;;;;;;5.28;2.65;;;8.50;99.90;;;;;;5073084;28;20445;-55
2024/03/16 05:03:46;;;;;;;5.55;1.52;;;8.50;99.90;;;;;;5073006;28;20021;-57
2024/03/16 05:06:12;;;;;;;9.05;1.25;;;8.50;99.90;;;;;;5073013;28;20052;-58
2024/03/16 05:08:38;;;;;;;9.40;2.13;;;8.50;99.90;;;;;;5072395;28;20032;-57
2024/03/16 05:11:04;;;;;;;2.35;0.90;;;8.40;99.90;;;;;;5072730;28;20046;-56
2024/03/16 05:13:29;;;;;;;2.47;1.42;;;8.30;99.90;;;;;;5072494;28;20028;-57
2024/03/16 05:15:55;;;;;;;5.18;0.90;;;8.30;99.90;;;;;;5072952;28;20032;-57
2024/03/16 05:18:21;;;;;;;3.42;0.60;;;8.20;99.90;;;;;;5072791;28;20035;-54
2024/03/16 05:20:46;;;;;;;2.20;0.60;;;8.20;99.90;;;;;;5072846;28;20500;-56
2024/03/16 05:23:14;;;;;;;4.93;0.65;;;8.30;99.90;;;;;;5072709;28;20507;-56
2024/03/16 05:25:45;;;;;;;0.67;0.43;;;8.20;99.90;;;;;;5072511;28;20032;-55
2024/03/16 05:28:10;;;;;;;1.75;0.77;;;8.10;99.90;;;;;;5072610;28;20067;-41
2024/03/16 05:30:37;;;;;;;3.90;0.57;;;8.10;99.90;;;;;;5072472;28;20109;-43
2024/03/16 05:33:04;;;;;;;2.28;0.73;;;8.00;99.90;;;;;;5072830;28;20032;-41
2024/03/16 05:35:29;;;;;;;12.18;0.80;;;7.90;99.90;;;;;;5072334;28;20028;-44
2024/03/16 05:37:55;;;;;;;7.88;0.75;;;7.90;99.90;;;;;;5072439;28;20032;-45
2024/03/16 05:40:21;;;;;;;2.33;0.65;;;7.90;99.90;;;;;;5072770;28;20523;-56
2024/03/16 05:42:47;;;;;;;3.40;0.90;;;7.90;99.90;;;;;;5072423;28;20465;-57
2024/03/16 05:45:12;;;;;;;6.40;1.35;;;8.00;99.90;;;;;;5054454;28;20111;-71
2024/03/16 05:47:38;;;;;;;4.03;0.77;;;8.00;99.90;;;;;;5072203;28;20054;-56
2024/03/16 05:50:04;;;;;;;9.15;1.30;;;8.00;99.90;;;;;;5072565;28;20029;-56
2024/03/16 05:52:30;;;;;;;5.68;0.70;;;8.00;99.90;;;;;;5072336;28;20509;-45
2024/03/16 05:54:55;;;;;;;8.13;0.68;;;8.00;99.90;;;;;;5072517;28;20029;-44
2024/03/16 05:57:21;;;;;;;3.72;0.80;;;8.10;99.90;;;;;;5072484;28;20029;-52
2024/03/16 05:59:50;;;;;;;1.65;0.70;;;8.10;99.90;;;;;;5072194;28;20516;-56
2024/03/16 06:02:16;;;;;;;6.57;0.80;;;8.10;99.90;;;;;;5054224;28;20378;-57
2024/03/16 06:04:41;;;;;;;6.80;1.08;;;8.10;99.90;;;;;;5064170;28;20035;-56
2024/03/16 06:07:08;;;;;;;4.43;1.20;;;8.20;99.90;;;;;;5072217;28;20035;-55
2024/03/16 06:09:33;;;;;;;7.25;1.33;;;8.20;99.90;;;;;;5072359;28;20502;-57
2024/03/16 06:11:59;;;;;;;6.72;1.20;;;8.20;99.90;;;;;;5072026;28;20045;-56
2024/03/16 06:14:24;;;;;;;2.75;0.80;;;8.20;99.90;;;;;;5070895;28;20123;-56
2024/03/16 06:16:50;;;;;;;3.22;0.60;;;8.30;99.90;;;;;;5072085;28;20147;-57
2024/03/16 06:19:16;;;;;;;4.88;1.38;;;8.30;99.90;;;;;;5072126;28;20362;-65
2024/03/16 06:21:41;;;;;;;4.35;1.02;;;8.40;99.90;;;;;;5074018;28;20025;-56
2024/03/16 06:24:07;;;;;;;9.18;0.95;;;8.40;99.90;;;;;;5076140;28;20043;-55
2024/03/16 06:26:36;;;;;;;13.65;1.42;;;8.40;99.90;;;;;;5076070;28;20539;-54
2024/03/16 06:29:05;;;;;;;5.30;1.20;;;8.40;99.90;;;;;;5076024;28;20039;-56
2024/03/16 06:31:38;;;;;;;1.45;0.68;;;8.30;99.90;;;;;;5075930;28;20032;-54
2024/03/16 06:34:04;;;;;;;9.95;2.28;;;8.20;99.90;;;;;;5075669;28;20397;-57
2024/03/16 06:36:34;;;;;;;5.75;0.82;;;8.20;99.90;;;;;;5076056;28;20373;-57
2024/03/16 06:39:10;;;;;;;9.10;1.33;;;8.20;99.90;;;;;;5074723;28;20503;-56
2024/03/16 06:41:36;;;;;;;8.68;1.05;;;8.20;99.90;;;;;;5075874;28;20480;-55
2024/03/16 06:44:05;;;;;;;11.05;1.48;;;8.10;99.90;;;;;;5075794;28;20059;-56
2024/03/16 06:46:31;;;;;;;8.25;0.80;;;8.20;99.90;;;;;;5064357;28;20151;-56
2024/03/16 06:48:59;;;;;;;0.60;0.60;;;8.20;99.90;;;;;;5055675;28;20029;-48
2024/03/16 06:51:25;;;;;;;5.13;0.60;;;8.30;99.90;;;;;;5055927;28;20401;-44
2024/03/16 06:53:51;;;;;;;3.08;0.68;;;8.30;99.90;;;;;;5055452;28;20033;-44
2024/03/16 06:56:18;;;;;;;4.10;0.63;;;8.30;99.90;;;;;;5072141;28;20492;-44
2024/03/16 06:58:43;;;;;;;7.00;0.95;;;8.30;99.90;;;;;;5071025;28;20029;-48
2024/03/16 07:01:12;;;;;;;5.22;0.65;;;8.30;99.90;;;;;;5055477;28;20041;-49
2024/03/16 07:03:38;;;;;;;2.28;0.73;;;8.40;99.90;;;;;;5054028;28;20559;-50
2024/03/16 07:06:06;;;;;;;4.97;0.98;;;8.40;99.90;;;;;;5055659;28;20037;-45
2024/03/16 07:08:32;;;;;;;3.60;0.77;;;8.50;99.90;;;;;;5055327;28;20477;-45
2024/03/16 07:10:57;;;;;;;2.75;0.38;;;8.50;99.90;;;;;;5055105;28;20064;-47
2024/03/16 07:13:24;;;;;;;10.85;1.27;;;8.50;99.90;;;;;;5072842;28;20392;-58
2024/03/16 07:15:50;;;;;;;1.92;0.55;;;8.50;99.90;;;;;;5075138;28;20028;-58
2024/03/16 07:18:16;;;;;;;6.68;0.80;;;8.50;99.90;;;;;;5075040;28;20498;-57
2024/03/16 07:20:42;;;;;;;5.95;1.45;;;8.50;99.90;;;;;;5075072;28;20062;-58
2024/03/16 07:23:07;;;;;;;8.55;1.10;;;8.50;99.90;;;;;;5075044;28;20255;-57
2024/03/16 07:25:33;;;;;;;10.35;1.30;;;8.50;99.90;;;;;;5074871;28;20055;-57
2024/03/16 07:27:59;;;;;;;6.65;0.80;;;8.50;99.90;;;;;;5074935;28;20021;-57
2024/03/16 07:30:25;;;;;;;2.92;0.77;;;8.60;99.90;;;;;;5073461;28;20032;-57
2024/03/16 07:32:51;;;;;;;9.18;1.25;;;8.70;99.90;;;;;;5074320;28;20492;-57
2024/03/16 07:35:16;;;;;;;4.32;1.25;;;8.70;99.90;;;;;;5074705;28;20028;-57
2024/03/16 07:37:42;;;;;;;2.83;0.82;;;8.70;99.90;;;;;;5074631;28;20481;-57
2024/03/16 07:40:15;;;;;;;8.57;0.90;;;8.60;99.90;;;;;;5074952;28;20481;-58
2024/03/16 07:42:44;;;;;;;7.47;0.70;;;8.60;99.90;;;;;;5074591;28;20033;-57
2024/03/16 07:45:10;;;;;;;3.05;0.90;;;8.50;99.90;;;;;;5073370;28;20028;-63
2024/03/16 07:47:36;;;;;;;7.55;1.08;;;8.60;99.90;;;;;;5074344;28;20112;-58
2024/03/16 07:50:03;;;;;;;6.35;0.82;;;8.70;99.90;;;;;;5074737;28;20504;-57
2024/03/16 07:52:29;;;;;;;4.78;0.70;;;8.80;99.90;;;;;;5074724;28;20070;-58
2024/03/16 07:54:54;;;;;;;3.95;0.93;;;8.80;99.90;;;;;;5074329;28;20029;-58
2024/03/16 07:57:20;;;;;;;3.00;0.70;;;8.90;99.90;;;;;;5074399;28;20078;-58
2024/03/16 07:59:45;;;;;;;5.28;1.00;;;8.80;99.90;;;;;;5074441;28;20486;-43
2024/03/16 08:02:11;;;;;;;7.95;0.75;;;8.90;99.90;;;;;;5074318;28;20029;-45
2024/03/16 08:04:37;;;;;;;4.28;1.15;;;9.10;99.90;;;;;;5074186;28;20396;-46
2024/03/16 08:07:05;;;;;;;3.53;0.60;;;9.20;99.90;;;;;;5072957;28;20488;-43
2024/03/16 08:09:31;;;;;;;4.30;0.85;;;9.20;99.90;;;;;;5074146;28;20484;-45
2024/03/16 08:11:57;;;;;;;0.50;0.50;;;9.30;99.90;;;;;;5073840;28;20047;-46
2024/03/16 08:14:24;;;;;;;2.40;0.57;;;9.40;99.90;;;;;;5074002;28;20039;-43
2024/03/16 08:16:50;;;;;;;7.05;0.60;;;9.50;99.90;;;;;;5073975;28;20378;-48
2024/03/16 08:19:16;;;;;;;5.28;0.60;;;9.50;99.90;;;;;;5072645;28;20107;-46
2024/03/16 08:21:43;;;;;;;0.50;0.30;;;9.30;99.90;;;;;;5073387;28;20210;-44
2024/03/16 08:24:08;;;;;;;4.22;0.70;;;9.20;99.90;;;;;;5072582;28;20115;-57
2024/03/16 08:26:34;;;;;;;8.38;0.77;;;9.20;99.90;;;;;;5073798;28;20139;-58
2024/03/16 08:29:00;;;;;;;2.42;0.70;;;9.20;99.90;;;;;;5073740;28;20035;-57
2024/03/16 08:31:26;;;;;;;7.53;0.70;;;9.10;99.90;;;;;;5073764;28;20029;-56
2024/03/16 08:33:51;;;;;;;6.03;1.25;;;9.10;99.90;;;;;;5073719;28;20366;-56
2024/03/16 08:36:17;;;;;;;5.60;0.80;;;9.10;99.90;;;;;;5073367;28;20387;-56
2024/03/16 08:38:43;;;;;;;3.85;1.10;;;9.20;99.90;;;;;;5072213;28;20516;-57
2024/03/16 08:41:08;;;;;;;3.17;0.77;;;9.10;99.90;;;;;;5073471;28;20037;-57
2024/03/16 08:43:34;;;;;;;5.88;0.63;;;9.10;99.90;;;;;;5072634;28;20427;-57
2024/03/16 08:46:06;;;;;;;2.13;0.60;;;9.00;99.90;;;;;;5073428;28;20370;-57
2024/03/16 08:48:32;;;;;;;6.40;0.40;;;9.10;99.90;;;;;;5073336;28;20028;-57
2024/03/16 08:50:59;;;;;;;2.70;0.40;;;9.10;99.90;;;;;;5073261;28;20032;-57
2024/03/16 08:53:26;;;;;;;3.45;0.45;;;9.30;99.90;;;;;;5073119;28;20033;-55
2024/03/16 08:55:56;;;;;;;3.10;0.50;;;9.20;99.90;;;;;;5071966;28;20455;-56
2024/03/16 08:58:24;;;;;;;4.70;0.68;;;9.30;99.90;;;;;;5073314;28;20388;-56
2024/03/16 09:00:53;;;;;;;5.70;2.35;;;9.40;99.90;;;;;;5073413;28;20381;-58
2024/03/16 09:03:20;;;;;;;8.55;0.93;;;9.30;99.90;;;;;;5072902;28;20389;-57
2024/03/16 09:05:46;;;;;;;4.25;0.80;;;9.40;99.90;;;;;;5073153;28;20443;-51
2024/03/16 09:08:11;;;;;;;4.90;0.70;;;9.40;99.90;;;;;;5055122;28;20029;-58
2024/03/16 09:10:37;;;;;;;7.88;0.68;;;9.40;99.90;;;;;;5072785;28;20044;-43
2024/03/16 09:13:03;;;;;;;1.83;0.47;;;9.30;99.90;;;;;;5072912;28;20024;-56
2024/03/16 09:15:29;;;;;;;7.97;0.73;;;9.20;99.90;;;;;;5072895;28;20111;-58
2024/03/16 09:17:55;;;;;;;6.30;0.80;;;9.20;99.90;;;;;;5072905;28;20512;-57
2024/03/16 09:20:23;;;;;;;3.00;0.77;;;9.20;99.90;;;;;;5073079;28;20426;-58
2024/03/16 09:22:52;;;;;;;9.88;1.08;;;9.30;99.90;;;;;;5072671;28;20106;-59
2024/03/16 09:25:20;;;;;;;5.47;0.90;;;9.30;99.90;;;;;;5072663;28;20043;-57
2024/03/16 09:27:46;;;;;;;5.88;0.63;;;9.40;99.90;;;;;;5072525;28;20061;-57
2024/03/16 09:30:12;;;;;;;2.00;0.57;;;9.40;99.90;;;;;;5072557;28;20086;-58
2024/03/16 09:32:37;;;;;;;1.80;0.60;;;9.60;99.90;;;;;;5072589;28;20143;-57
2024/03/16 09:35:10;;;;;;;2.60;0.65;;;9.60;99.90;;;;;;5072708;28;20031;-56
2024/03/16 09:37:36;;;;;;;6.18;0.90;;;9.60;99.90;;;;;;5072469;28;20032;-54
2024/03/16 09:40:09;;;;;;;8.20;0.98;;;9.60;99.90;;;;;;5072511;28;20021;-56
2024/03/16 09:42:39;;;;;;;3.95;1.25;;;9.50;99.90;;;;;;5072784;28;20028;-57
2024/03/16 09:45:23;;;;;;;3.33;0.63;;;9.50;99.90;;;;;;5072237;28;20036;-56
2024/03/16 09:47:48;;;;;;;5.25;0.57;;;9.30;99.90;;;;;;5071119;28;20032;-57
2024/03/16 09:50:16;;;;;;;2.53;0.40;;;9.30;99.90;;;;;;5072349;28;20035;-58
2024/03/16 09:52:48;;;;;;;0.95;0.50;;;9.40;99.90;;;;;;5072605;28;20029;-57
2024/03/16 09:55:14;;;;;;;5.82;2.25;;;9.40;99.90;;;;;;5072126;28;20501;-58
2024/03/16 09:57:40;;;;;;;6.50;0.50;;;9.50;99.90;;;;;;5072280;28;20052;-57
2024/03/16 10:00:10;;;;;;;3.10;0.52;;;9.60;99.90;;;;;;5071018;28;20036;-72
2024/03/16 10:02:39;;;;;;;6.78;1.25;;;9.70;99.90;;;;;;5072159;28;20036;-53
2024/03/16 10:05:11;;;;;;;3.65;1.17;;;9.80;99.90;;;;;;5072238;28;20032;-45
2024/03/16 10:07:40;;;;;;;1.30;0.35;;;9.80;99.90;;;;;;5072293;28;20089;-42
2024/03/16 10:10:10;;;;;;;2.85;0.60;;;9.70;99.90;;;;;;5072283;28;20354;-44
2024/03/16 10:12:40;;;;;;;2.55;0.68;;;9.60;99.90;;;;;;5072548;28;20090;-44
2024/03/16 10:15:15;;;;;;;5.38;1.42;;;9.60;99.90;;;;;;5072657;28;20090;-45
2024/03/16 10:17:41;;;;;;;4.38;1.17;;;9.70;99.90;;;;;;5070269;28;20047;-46
2024/03/16 10:20:18;;;;;;;8.27;0.73;;;9.80;99.90;;;;;;5069366;28;20070;-58
2024/03/16 10:22:45;;;;;;;8.23;0.67;;;9.90;99.90;;;;;;5072148;28;20461;-55
2024/03/16 10:25:12;;;;;;;4.03;0.38;;;9.90;99.90;;;;;;5072046;28;20067;-52
2024/03/16 10:27:39;;;;;;;11.10;0.75;;;10.00;99.90;;;;;;5071946;28;20285;-57
2024/03/16 10:30:12;;;;;;;5.87;1.30;;;10.10;99.90;;;;;;5072319;28;20469;-56
2024/03/16 10:33:00;;;;;;;3.25;1.02;;;10.10;99.90;;;;;;5070587;28;20025;-54
2024/03/16 10:35:26;;;;;;;6.78;1.05;;;10.10;99.90;;;;;;5070516;28;20455;-59
2024/03/16 10:37:52;;;;;;;4.10;0.90;;;10.10;99.90;;;;;;5072100;28;20436;-61
2024/03/16 10:40:21;;;;;;;5.78;1.10;;;10.10;99.90;;;;;;5071800;28;20427;-55
2024/03/16 10:42:50;;;;;;;7.05;0.68;;;10.10;99.90;;;;;;5071850;28;20025;-56
2024/03/16 10:45:16;;;;;;;8.60;0.82;;;10.10;99.90;;;;;;5071872;28;20056;-54
2024/03/16 10:47:52;;;;;;;6.40;0.68;;;10.30;99.90;;;;;;5071702;28;20132;-55
2024/03/16 10:50:24;;;;;;;6.93;1.65;;;10.50;99.90;;;;;;5071775;28;20068;-55
2024/03/16 10:52:51;;;;;;;5.47;0.60;;;10.70;99.90;;;;;;5070299;28;20373;-55
2024/03/16 10:55:24;;;;;;;9.25;0.95;;;10.60;99.90;;;;;;5071630;28;20082;-50
2024/03/16 10:57:50;;;;;;;3.42;0.93;;;10.70;99.90;;;;;;5071842;28;20028;-55
2024/03/16 11:00:37;;;;;;;6.57;0.93;;;10.70;99.90;;;;;;5071596;28;20025;-56
2024/03/16 11:03:12;;;;;;;5.22;0.85;;;10.60;99.90;;;;;;5071930;28;20048;-55
2024/03/16 11:05:48;;;;;;;5.78;0.80;;;10.50;99.90;;;;;;5071640;28;20060;-55
2024/03/16 11:08:13;;;;;;;8.95;0.90;;;10.50;99.90;;;;;;5074578;28;20582;-57
2024/03/16 11:10:40;;;;;;;6.03;0.65;;;10.40;99.90;;;;;;5074971;28;20065;-57
2024/03/16 11:13:16;;;;;;;4.82;0.73;;;10.40;99.90;;;;;;5075387;28;20477;-57
2024/03/16 11:15:43;;;;;;;7.53;0.70;;;10.30;99.90;;;;;;5075124;28;20435;-62
2024/03/16 11:18:21;;;;;;;1.48;0.25;;;10.40;99.90;;;;;;5075052;28;20020;-56
2024/03/16 11:20:50;;;;;;;3.70;0.60;;;10.50;99.90;;;;;;5075073;28;20515;-57
2024/03/16 11:23:27;;;;;;;4.63;0.75;;;10.70;99.90;;;;;;5075026;28;20093;-57
2024/03/16 11:25:54;;;;;;;1.85;0.85;;;10.90;99.90;;;;;;5075202;28;20552;-57
2024/03/16 11:28:21;;;;;;;3.45;0.50;;;10.90;99.90;;;;;;5062917;28;20029;-54
2024/03/16 11:30:48;;;;;;;1.25;0.60;;;10.90;99.90;;;;;;5053687;28;20035;-56
2024/03/16 11:33:14;;;;;;;4.40;0.52;;;11.00;99.90;;;;;;5054752;28;20017;-57
2024/03/16 11:35:40;;;;;;;3.97;0.55;;;10.90;99.90;;;;;;5054985;28;20024;-56
2024/03/16 11:38:15;;;;;;;5.88;0.90;;;10.90;99.90;;;;;;5072988;28;20362;-54
2024/03/16 11:40:45;;;;;;;2.55;0.63;;;10.90;99.90;;;;;;5073344;28;20021;-56
2024/03/16 11:43:12;;;;;;;8.75;2.17;;;10.90;99.90;;;;;;5074866;28;20481;-56
2024/03/16 11:45:39;;;;;;;8.02;1.00;;;10.90;99.90;;;;;;5074373;28;20537;-56
2024/03/16 11:48:07;;;;;;;9.98;0.95;;;11.00;99.90;;;;;;5074816;28;20020;-54
2024/03/16 11:50:33;;;;;;;9.23;0.65;;;10.90;99.90;;;;;;5074229;28;20016;-55
2024/03/16 11:52:59;;;;;;;11.13;1.10;;;10.80;99.90;;;;;;5074240;28;20032;-54
2024/03/16 11:55:26;;;;;;;4.57;0.52;;;10.70;99.90;;;;;;5072920;28;20028;-55
2024/03/16 11:57:52;;;;;;;2.70;0.70;;;10.70;99.90;;;;;;5073009;28;20021;-55
2024/03/16 12:00:18;;;;;;;3.75;0.65;;;10.70;99.90;;;;;;5074137;28;20435;-53
2024/03/16 12:02:46;;;;;;;3.97;0.60;;;10.70;99.90;;;;;;5074103;28;20017;-52
2024/03/16 12:05:13;;;;;;;4.65;0.68;;;10.90;99.90;;;;;;5074049;28;20047;-56
2024/03/16 12:07:48;;;;;;;9.07;0.93;;;10.80;99.90;;;;;;5072773;28;20477;-54
2024/03/16 12:10:14;;;;;;;3.50;0.70;;;10.90;99.90;;;;;;5072868;28;20469;-55
2024/03/16 12:12:43;;;;;;;6.75;1.42;;;10.90;99.90;;;;;;5074073;28;20105;-69
2024/03/16 12:15:09;;;;;;;3.50;0.65;;;11.00;99.90;;;;;;5074202;28;20067;-67
2024/03/16 12:17:36;;;;;;;6.20;1.65;;;10.80;99.90;;;;;;5073874;28;20104;-55
2024/03/16 12:20:05;;;;;;;6.85;0.68;;;10.80;99.90;;;;;;5073991;28;20020;-55
2024/03/16 12:22:31;;;;;;;3.65;1.33;;;10.80;99.90;;;;;;5073584;28;20021;-54
2024/03/16 12:24:59;;;;;;;5.43;0.82;;;10.80;99.90;;;;;;5073570;28;20075;-57
2024/03/16 12:27:26;;;;;;;3.72;1.05;;;10.80;99.90;;;;;;5073790;28;20488;-55
2024/03/16 12:29:51;;;;;;;3.25;0.80;;;11.10;99.90;;;;;;5073464;28;20021;-55
2024/03/16 12:32:18;;;;;;;6.90;1.08;;;11.30;99.90;;;;;;5073646;28;20040;-56
2024/03/16 12:34:44;;;;;;;4.75;0.90;;;11.60;99.90;;;;;;5073586;28;20481;-55
2024/03/16 12:37:10;;;;;;;8.80;0.98;;;11.90;99.90;;;;;;5063104;28;20021;-56
2024/03/16 12:39:36;;;;;;;5.28;0.55;;;11.80;99.90;;;;;;5053343;28;20363;-56
2024/03/16 12:42:02;;;;;;;5.40;0.85;;;11.70;99.90;;;;;;5053482;28;20036;-47
2024/03/16 12:44:27;;;;;;;3.50;0.88;;;11.90;99.90;;;;;;5053387;28;20032;-43
2024/03/16 12:46:53;;;;;;;5.70;0.80;;;11.90;99.90;;;;;;5053360;28;20477;-49
2024/03/16 12:49:20;;;;;;;6.65;1.13;;;12.20;99.90;;;;;;5053361;28;20064;-44
2024/03/16 12:51:46;;;;;;;7.85;1.00;;;12.30;99.90;;;;;;5057646;28;20025;-41